createdAt,value
2022-12-25T00:30:32.949Z,0
2022-12-25T00:31:13.463Z,0
2022-12-25T00:31:53.973Z,0
2022-12-25T00:32:34.436Z,0
2022-12-25T00:33:14.943Z,0
2022-12-25T00:33:55.460Z,0
2022-12-25T00:34:35.924Z,0
2022-12-25T00:37:49.712Z,0
2022-12-25T00:38:30.116Z,0
2022-12-25T00:39:10.558Z,0
2022-12-25T00:39:51.037Z,0
2022-12-25T00:40:31.543Z,0
2022-12-25T00:41:12.072Z,0
2022-12-25T00:41:52.601Z,0
2022-12-25T00:42:33.523Z,0
2022-12-25T00:43:13.964Z,0
2022-12-25T00:43:54.512Z,0
2022-12-25T00:50:39.341Z,0
2022-12-25T00:53:52.941Z,0
2022-12-25T00:54:33.560Z,0
2022-12-25T00:55:14.051Z,0
2022-12-25T00:55:54.520Z,0
2022-12-25T00:56:35.005Z,0
2022-12-25T00:57:16.047Z,0
2022-12-25T00:57:56.680Z,0
2022-12-25T00:58:37.179Z,0
2022-12-25T00:59:17.640Z,0
2022-12-25T01:06:42.955Z,0
2022-12-25T01:07:23.456Z,0
2022-12-25T01:08:03.952Z,0
2022-12-25T01:08:44.458Z,0
2022-12-25T01:09:24.963Z,0
2022-12-25T01:10:05.448Z,0
2022-12-25T01:10:45.931Z,0
2022-12-25T01:11:26.421Z,0
2022-12-25T01:12:06.889Z,0
2022-12-25T01:12:47.424Z,0
2022-12-25T01:20:12.983Z,0
2022-12-25T01:20:53.473Z,0
2022-12-25T01:21:33.978Z,0
2022-12-25T01:22:15.137Z,0
2022-12-25T01:22:55.607Z,0
2022-12-25T01:23:36.124Z,0
2022-12-25T01:24:16.607Z,0
2022-12-25T01:24:57.131Z,0
2022-12-25T01:25:37.605Z,0
2022-12-25T01:33:03.121Z,0
2022-12-25T01:33:43.604Z,0
2022-12-25T01:34:24.114Z,0
2022-12-25T01:35:04.618Z,0
2022-12-25T01:35:45.084Z,0
2022-12-25T01:36:25.587Z,0
2022-12-25T01:37:06.073Z,0
2022-12-25T01:37:46.543Z,0
2022-12-25T01:38:27.056Z,0
2022-12-25T01:39:07.561Z,0
2022-12-25T01:39:48.117Z,0
2022-12-25T01:46:33.158Z,0
2022-12-25T01:47:13.636Z,0
2022-12-25T01:47:54.155Z,0
2022-12-25T01:48:34.623Z,0
2022-12-25T01:49:15.144Z,0
2022-12-25T01:49:55.634Z,0
2022-12-25T01:50:36.110Z,0
2022-12-25T01:51:16.588Z,0
2022-12-25T01:51:57.089Z,0
2022-12-25T01:52:37.590Z,0
2022-12-25T02:00:02.851Z,0
2022-12-25T02:00:43.402Z,0
2022-12-25T02:01:23.911Z,0
2022-12-25T02:02:04.494Z,0
2022-12-25T02:02:44.961Z,0
2022-12-25T02:03:25.435Z,0
2022-12-25T02:04:05.857Z,0
2022-12-25T02:04:46.313Z,0
2022-12-25T02:05:26.845Z,0
2022-12-25T02:06:07.291Z,0
2022-12-25T02:06:47.765Z,0
2022-12-25T02:14:13.141Z,0
2022-12-25T02:14:54.729Z,0
2022-12-25T02:15:34.119Z,0
2022-12-25T02:16:14.619Z,0
2022-12-25T02:16:57.212Z,0
2022-12-25T02:17:35.671Z,0
2022-12-25T02:18:16.183Z,0
2022-12-25T02:18:56.679Z,0
2022-12-25T02:19:37.158Z,0
2022-12-25T02:20:17.679Z,0
2022-12-25T02:27:43.118Z,0
2022-12-25T02:28:23.630Z,0
2022-12-25T02:29:04.125Z,0
2022-12-25T02:29:44.618Z,0
2022-12-25T02:30:25.096Z,0
2022-12-25T02:31:05.655Z,0
2022-12-25T02:31:46.107Z,0
2022-12-25T02:32:26.616Z,0
2022-12-25T02:33:07.098Z,0
2022-12-25T02:33:47.633Z,0
2022-12-25T02:41:13.259Z,0
2022-12-25T02:41:53.758Z,0
2022-12-25T02:42:34.263Z,0
2022-12-25T02:43:14.776Z,0
2022-12-25T02:43:55.255Z,0
2022-12-25T02:44:35.773Z,0
2022-12-25T02:45:16.286Z,0
2022-12-25T02:45:56.766Z,0
2022-12-25T02:46:37.205Z,0
2022-12-25T02:47:17.694Z,0
2022-12-25T02:54:43.065Z,0
2022-12-25T02:55:23.555Z,0
2022-12-25T02:56:04.017Z,0
2022-12-25T02:56:44.509Z,0
2022-12-25T02:57:25.018Z,0
2022-12-25T02:58:05.504Z,0
2022-12-25T02:58:45.980Z,0
2022-12-25T02:59:26.488Z,0
2022-12-25T03:00:06.991Z,0
2022-12-25T03:00:47.525Z,0
2022-12-25T03:07:32.725Z,0
2022-12-25T03:08:13.226Z,0
2022-12-25T03:08:53.722Z,0
2022-12-25T03:09:34.205Z,0
2022-12-25T03:10:14.665Z,0
2022-12-25T03:10:55.195Z,0
2022-12-25T03:11:35.678Z,0
2022-12-25T03:12:16.263Z,0
2022-12-25T03:12:57.504Z,0
2022-12-25T03:13:37.268Z,0
2022-12-25T03:14:17.724Z,0
2022-12-25T03:21:43.112Z,0
2022-12-25T03:22:23.617Z,0
2022-12-25T03:23:04.147Z,0
2022-12-25T03:23:44.663Z,0
2022-12-25T03:24:25.151Z,0
2022-12-25T03:25:05.601Z,0
2022-12-25T03:25:46.086Z,0
2022-12-25T03:26:26.580Z,0
2022-12-25T03:27:07.055Z,0
2022-12-25T03:27:47.543Z,0
2022-12-25T03:28:28.033Z,0
2022-12-25T03:35:13.076Z,0
2022-12-25T03:35:53.601Z,0
2022-12-25T03:36:34.110Z,0
2022-12-25T03:37:14.670Z,0
2022-12-25T03:37:55.134Z,0
2022-12-25T03:38:35.608Z,0
2022-12-25T03:39:16.138Z,0
2022-12-25T03:39:56.574Z,0
2022-12-25T03:40:37.044Z,0
2022-12-25T03:41:17.537Z,0
2022-12-25T03:41:58.056Z,0
2022-12-25T03:48:42.961Z,0
2022-12-25T03:49:23.474Z,0
2022-12-25T03:50:03.982Z,0
2022-12-25T03:50:44.435Z,0
2022-12-25T03:51:24.903Z,0
2022-12-25T03:52:05.464Z,0
2022-12-25T03:52:45.913Z,0
2022-12-25T03:53:26.388Z,0
2022-12-25T03:54:06.883Z,0
2022-12-25T03:54:47.376Z,0
2022-12-25T03:55:27.861Z,0
2022-12-25T04:02:13.056Z,0
2022-12-25T04:02:53.573Z,0
2022-12-25T04:03:34.032Z,0
2022-12-25T04:04:14.529Z,0
2022-12-25T04:04:55.050Z,0
2022-12-25T04:05:35.544Z,0
2022-12-25T04:06:16.032Z,0
2022-12-25T04:06:56.551Z,0
2022-12-25T04:07:37.032Z,0
2022-12-25T04:08:17.483Z,0
2022-12-25T04:15:42.981Z,0
2022-12-25T04:16:23.517Z,0
2022-12-25T04:17:03.901Z,0
2022-12-25T04:17:44.370Z,0
2022-12-25T04:18:24.869Z,0
2022-12-25T04:19:05.342Z,0
2022-12-25T04:19:45.893Z,0
2022-12-25T04:20:26.327Z,0
2022-12-25T04:21:06.800Z,0
2022-12-25T04:21:47.256Z,0
2022-12-25T04:22:27.791Z,0
2022-12-25T04:26:47.515Z,0
2022-12-25T04:27:27.890Z,0
2022-12-25T04:28:08.417Z,0
2022-12-25T04:28:48.926Z,0
2022-12-25T04:29:29.418Z,0
2022-12-25T04:30:09.928Z,0
2022-12-25T04:30:50.462Z,0
2022-12-25T04:31:31.001Z,0
2022-12-25T04:32:11.457Z,0
2022-12-25T04:32:51.937Z,0
2022-12-25T04:33:32.428Z,0
2022-12-25T04:40:17.325Z,0
2022-12-25T04:40:57.812Z,0
2022-12-25T04:41:38.310Z,0
2022-12-25T04:42:18.776Z,0
2022-12-25T04:42:59.303Z,0
2022-12-25T04:43:39.806Z,0
2022-12-25T04:44:20.294Z,0
2022-12-25T04:45:00.841Z,0
2022-12-25T04:45:41.257Z,0
2022-12-25T04:46:21.779Z,0
2022-12-25T04:47:05.928Z,0
2022-12-25T04:52:27.195Z,0
2022-12-25T04:53:07.769Z,0
2022-12-25T04:53:48.189Z,0
2022-12-25T04:54:28.705Z,0
2022-12-25T04:55:09.182Z,0
2022-12-25T04:55:49.685Z,0
2022-12-25T04:57:10.721Z,0
2022-12-25T04:57:51.218Z,0
2022-12-25T04:58:31.652Z,0
2022-12-25T04:59:12.157Z,0
2022-12-25T05:05:57.258Z,0
2022-12-25T05:06:37.685Z,0
2022-12-25T05:07:18.162Z,0
2022-12-25T05:07:58.685Z,0
2022-12-25T05:08:39.163Z,0
2022-12-25T05:09:19.723Z,0
2022-12-25T05:10:00.215Z,0
2022-12-25T05:10:40.743Z,0
2022-12-25T05:11:21.239Z,0
2022-12-25T05:14:51.073Z,0
2022-12-25T05:15:31.670Z,0
2022-12-25T05:16:12.137Z,0
2022-12-25T05:16:52.558Z,0
2022-12-25T05:17:33.092Z,0
2022-12-25T05:18:13.556Z,0
2022-12-25T05:18:53.971Z,0
2022-12-25T05:19:34.564Z,0
2022-12-25T05:20:15.117Z,0
2022-12-25T05:20:55.657Z,0
2022-12-25T05:27:40.848Z,0
2022-12-25T05:28:21.328Z,0
2022-12-25T05:29:42.340Z,0
2022-12-25T05:30:22.849Z,0
2022-12-25T05:31:03.462Z,0
2022-12-25T05:31:43.987Z,0
2022-12-25T05:32:24.417Z,0
2022-12-25T05:33:04.902Z,0
2022-12-25T05:33:45.379Z,0
2022-12-25T05:34:25.906Z,0
2022-12-25T05:41:10.913Z,0
2022-12-25T05:41:51.421Z,0
2022-12-25T05:42:31.949Z,0
2022-12-25T05:43:12.440Z,0
2022-12-25T05:43:52.903Z,0
2022-12-25T05:44:33.420Z,0
2022-12-25T05:45:13.871Z,0
2022-12-25T05:45:54.365Z,0
2022-12-25T05:46:34.945Z,0
2022-12-25T05:47:15.438Z,0
2022-12-25T05:47:55.924Z,0
2022-12-25T06:31:43.930Z,0
2022-12-25T06:32:24.419Z,0
2022-12-25T06:33:04.809Z,0
2022-12-25T06:33:45.270Z,0
2022-12-25T06:34:25.822Z,0
2022-12-25T06:35:06.323Z,0
2022-12-25T06:35:46.801Z,0
2022-12-25T06:36:27.273Z,0
2022-12-25T06:37:07.817Z,0
2022-12-25T06:37:48.317Z,0
2022-12-25T06:44:33.395Z,0
2022-12-25T06:45:13.895Z,0
2022-12-25T06:45:54.490Z,0
2022-12-25T06:46:34.862Z,0
2022-12-25T06:47:15.379Z,0
2022-12-25T06:47:55.868Z,0
2022-12-25T06:48:36.354Z,0
2022-12-25T06:49:16.842Z,0
2022-12-25T06:49:57.380Z,0
2022-12-25T06:50:37.859Z,0
2022-12-25T06:51:18.330Z,0
2022-12-25T06:58:43.774Z,0
2022-12-25T06:59:24.275Z,0
2022-12-25T07:00:04.776Z,0
2022-12-25T07:00:45.366Z,0
2022-12-25T07:01:25.952Z,0
2022-12-25T07:02:06.392Z,0
2022-12-25T07:02:46.935Z,0
2022-12-25T07:03:27.275Z,0
2022-12-25T07:04:07.768Z,0
2022-12-25T07:04:48.266Z,0
2022-12-25T07:11:33.616Z,0
2022-12-25T07:12:14.100Z,0
2022-12-25T07:12:54.620Z,0
2022-12-25T07:13:35.136Z,0
2022-12-25T07:14:18.766Z,0
2022-12-25T07:14:56.129Z,0
2022-12-25T07:15:36.644Z,4
2022-12-25T07:16:17.144Z,4
2022-12-25T07:16:57.718Z,4
2022-12-25T07:17:38.174Z,4
2022-12-25T07:25:03.755Z,4
2022-12-25T07:25:44.226Z,4
2022-12-25T07:26:24.704Z,4
2022-12-25T07:27:05.223Z,8
2022-12-25T07:27:45.681Z,4
2022-12-25T07:28:26.185Z,8
2022-12-25T07:29:06.692Z,8
2022-12-25T07:29:47.185Z,12
2022-12-25T07:30:27.738Z,8
2022-12-25T07:31:08.228Z,12
2022-12-25T07:31:48.744Z,12
2022-12-25T07:39:31.050Z,20
2022-12-25T07:40:11.569Z,20
2022-12-25T07:40:52.052Z,24
2022-12-25T07:41:32.549Z,24
2022-12-25T07:42:13.029Z,24
2022-12-25T07:42:53.647Z,24
2022-12-25T07:43:34.090Z,24
2022-12-25T07:44:14.485Z,20
2022-12-25T07:44:55.046Z,20
2022-12-25T07:45:36.505Z,20
2022-12-25T07:51:41.027Z,16
2022-12-25T07:52:21.469Z,16
2022-12-25T07:53:02.044Z,16
2022-12-25T07:53:42.459Z,12
2022-12-25T07:54:22.987Z,12
2022-12-25T07:55:03.473Z,12
2022-12-25T07:56:24.563Z,12
2022-12-25T07:57:04.984Z,16
2022-12-25T07:57:45.543Z,16
2022-12-25T08:05:11.002Z,28
2022-12-25T08:05:51.498Z,32
2022-12-25T08:06:32.040Z,32
2022-12-25T08:07:12.502Z,36
2022-12-25T08:07:57.270Z,36
2022-12-25T08:08:33.530Z,40
2022-12-25T08:09:14.041Z,40
2022-12-25T08:09:54.515Z,44
2022-12-25T08:10:35.037Z,44
2022-12-25T08:11:15.508Z,44
2022-12-25T08:11:55.978Z,48
2022-12-25T08:18:41.007Z,52
2022-12-25T08:19:21.483Z,52
2022-12-25T08:20:02.045Z,52
2022-12-25T08:20:42.518Z,48
2022-12-25T08:21:23.023Z,48
2022-12-25T08:22:03.581Z,48
2022-12-25T08:22:43.979Z,44
2022-12-25T08:23:24.481Z,44
2022-12-25T08:24:04.976Z,40
2022-12-25T08:24:45.481Z,36
2022-12-25T08:25:25.987Z,32
2022-12-25T08:32:10.887Z,64
2022-12-25T08:32:51.403Z,68
2022-12-25T08:33:31.926Z,68
2022-12-25T08:34:12.471Z,68
2022-12-25T08:34:52.992Z,64
2022-12-25T08:35:33.574Z,72
2022-12-25T08:36:13.999Z,76
2022-12-25T08:36:54.518Z,84
2022-12-25T08:37:35.133Z,88
2022-12-25T08:38:15.663Z,96
2022-12-25T08:45:00.667Z,84
2022-12-25T08:45:41.231Z,84
2022-12-25T08:46:21.758Z,88
2022-12-25T08:47:02.176Z,92
2022-12-25T08:50:15.815Z,116
2022-12-25T08:50:56.295Z,112
2022-12-25T08:51:36.801Z,112
2022-12-25T08:52:17.306Z,108
2022-12-25T08:52:57.820Z,100
2022-12-25T08:53:38.320Z,96
2022-12-25T08:54:18.851Z,84
2022-12-25T08:54:59.338Z,84
2022-12-25T08:55:40.101Z,84
2022-12-25T08:59:24.951Z,96
2022-12-25T09:00:05.630Z,96
2022-12-25T09:00:46.185Z,96
2022-12-25T09:01:26.899Z,100
2022-12-25T09:02:07.349Z,104
2022-12-25T09:02:47.841Z,108
2022-12-25T09:03:28.264Z,112
2022-12-25T09:04:08.762Z,108
2022-12-25T09:04:49.258Z,104
2022-12-25T09:05:29.796Z,96
2022-12-25T09:12:14.698Z,64
2022-12-25T09:12:55.139Z,64
2022-12-25T09:13:35.645Z,64
2022-12-25T09:14:16.159Z,60
2022-12-25T09:14:56.659Z,60
2022-12-25T09:15:37.157Z,64
2022-12-25T09:16:17.677Z,64
2022-12-25T09:16:58.092Z,64
2022-12-25T09:17:38.585Z,64
2022-12-25T09:18:19.108Z,60
2022-12-25T09:18:59.598Z,60
2022-12-25T09:28:34.321Z,84
2022-12-25T09:29:14.811Z,72
2022-12-25T09:29:55.307Z,68
2022-12-25T09:30:35.786Z,64
2022-12-25T09:31:16.363Z,60
2022-12-25T09:31:56.759Z,52
2022-12-25T09:32:37.270Z,48
2022-12-25T09:33:17.756Z,48
2022-12-25T09:33:58.241Z,44
2022-12-25T09:34:38.768Z,44
2022-12-25T09:35:19.297Z,48
2022-12-25T09:42:04.274Z,64
2022-12-25T09:42:44.826Z,64
2022-12-25T09:43:25.323Z,60
2022-12-25T09:44:05.773Z,56
2022-12-25T09:44:46.267Z,56
2022-12-25T09:45:26.741Z,56
2022-12-25T09:46:07.288Z,56
2022-12-25T09:46:47.796Z,60
2022-12-25T09:47:28.226Z,60
2022-12-25T09:48:08.775Z,60
2022-12-25T09:48:49.229Z,60
2022-12-25T09:55:34.292Z,64
2022-12-25T09:56:14.795Z,60
2022-12-25T09:56:55.301Z,60
2022-12-25T09:57:35.766Z,56
2022-12-25T09:58:16.320Z,56
2022-12-25T09:58:56.875Z,56
2022-12-25T09:59:37.323Z,52
2022-12-25T10:00:17.794Z,52
2022-12-25T10:00:58.327Z,48
2022-12-25T10:01:38.875Z,48
2022-12-25T10:02:19.470Z,56
2022-12-25T10:09:04.306Z,104
2022-12-25T10:09:44.797Z,104
2022-12-25T10:10:25.243Z,104
2022-12-25T10:11:05.737Z,112
2022-12-25T10:11:46.230Z,120
2022-12-25T10:12:26.770Z,124
2022-12-25T10:13:07.273Z,140
2022-12-25T10:13:47.799Z,168
2022-12-25T10:14:28.341Z,200
2022-12-25T10:15:08.759Z,232
2022-12-25T10:22:34.237Z,292
2022-12-25T10:23:14.776Z,256
2022-12-25T10:23:55.283Z,216
2022-12-25T10:24:35.770Z,180
2022-12-25T10:25:16.241Z,140
2022-12-25T10:26:37.294Z,116
2022-12-25T10:27:17.761Z,124
2022-12-25T10:27:58.295Z,148
2022-12-25T10:28:38.806Z,188
2022-12-25T10:29:19.250Z,244
2022-12-25T10:34:44.245Z,252
2022-12-25T10:36:04.462Z,192
2022-12-25T10:36:44.923Z,164
2022-12-25T10:37:25.454Z,140
2022-12-25T10:38:05.925Z,120
2022-12-25T10:38:46.452Z,108
2022-12-25T10:39:26.971Z,96
2022-12-25T10:40:07.417Z,100
2022-12-25T10:40:47.927Z,92
2022-12-25T10:41:28.411Z,92
2022-12-25T10:42:08.928Z,100
2022-12-25T10:49:34.469Z,124
2022-12-25T10:53:19.268Z,136
2022-12-25T10:53:59.836Z,132
2022-12-25T10:54:40.238Z,136
2022-12-25T10:55:25.057Z,140
2022-12-25T10:56:01.156Z,144
2022-12-25T10:56:41.734Z,144
2022-12-25T10:57:22.195Z,136
2022-12-25T10:58:02.687Z,132
2022-12-25T10:58:43.221Z,128
2022-12-25T10:59:23.734Z,128
2022-12-25T11:00:04.206Z,132
2022-12-25T11:06:48.978Z,252
2022-12-25T11:07:29.438Z,268
2022-12-25T11:08:09.974Z,280
2022-12-25T11:08:50.471Z,288
2022-12-25T11:09:30.972Z,284
2022-12-25T11:10:11.475Z,284
2022-12-25T11:10:51.976Z,288
2022-12-25T11:13:45.028Z,296
2022-12-25T11:14:25.464Z,300
2022-12-25T11:15:05.982Z,304
2022-12-25T11:15:46.524Z,300
2022-12-25T11:16:27.011Z,304
2022-12-25T11:17:07.462Z,308
2022-12-25T11:17:47.966Z,320
2022-12-25T11:18:28.442Z,336
2022-12-25T11:19:08.971Z,352
2022-12-25T11:19:49.473Z,364
2022-12-25T11:20:29.950Z,364
2022-12-25T11:27:14.848Z,300
2022-12-25T11:27:55.340Z,296
2022-12-25T11:28:35.823Z,300
2022-12-25T11:29:16.285Z,308
2022-12-25T11:29:56.781Z,316
2022-12-25T11:30:37.273Z,312
2022-12-25T11:31:17.801Z,308
2022-12-25T11:32:38.781Z,292
2022-12-25T11:33:19.283Z,280
2022-12-25T11:33:59.768Z,276
2022-12-25T11:41:25.227Z,156
2022-12-25T11:42:05.589Z,144
2022-12-25T11:42:46.069Z,132
2022-12-25T11:43:26.570Z,136
2022-12-25T11:44:07.056Z,152
2022-12-25T11:44:47.530Z,160
2022-12-25T11:45:28.025Z,188
2022-12-25T11:46:08.553Z,228
2022-12-25T11:46:49.080Z,244
2022-12-25T11:47:29.457Z,240
2022-12-25T11:48:09.977Z,252
2022-12-25T12:32:39.274Z,292
2022-12-25T12:33:19.891Z,304
2022-12-25T12:34:00.411Z,300
2022-12-25T12:34:40.954Z,304
2022-12-25T12:35:21.454Z,292
2022-12-25T12:36:01.972Z,316
2022-12-25T12:36:42.472Z,328
2022-12-25T12:37:24.939Z,340
2022-12-25T12:38:03.489Z,332
2022-12-25T12:38:43.965Z,320
2022-12-25T12:46:09.546Z,368
2022-12-25T12:46:49.998Z,360
2022-12-25T12:47:30.504Z,360
2022-12-25T12:48:11.017Z,356
2022-12-25T12:48:51.516Z,320
2022-12-25T12:49:32.094Z,272
2022-12-25T12:50:12.580Z,252
2022-12-25T12:50:53.077Z,236
2022-12-25T12:51:33.585Z,232
2022-12-25T12:58:59.325Z,192
2022-12-25T12:59:39.924Z,188
2022-12-25T13:00:20.332Z,196
2022-12-25T13:01:00.972Z,208
2022-12-25T13:01:41.528Z,220
2022-12-25T13:02:22.049Z,224
2022-12-25T13:03:02.528Z,224
2022-12-25T13:03:42.939Z,212
2022-12-25T13:04:23.389Z,204
2022-12-25T13:05:03.915Z,192
2022-12-25T13:11:49.021Z,196
2022-12-25T13:12:29.543Z,200
2022-12-25T13:13:10.029Z,204
2022-12-25T13:13:50.807Z,216
2022-12-25T13:14:31.424Z,224
2022-12-25T13:15:11.903Z,228
2022-12-25T13:15:52.439Z,228
2022-12-25T13:16:32.952Z,232
2022-12-25T13:17:13.405Z,228
2022-12-25T13:17:53.940Z,232
2022-12-25T13:25:19.491Z,156
2022-12-25T13:25:59.959Z,148
2022-12-25T13:26:40.490Z,148
2022-12-25T13:27:21.008Z,156
2022-12-25T13:28:01.491Z,168
2022-12-25T13:28:42.036Z,184
2022-12-25T13:29:22.460Z,196
2022-12-25T13:30:02.989Z,196
2022-12-25T13:30:43.487Z,188
2022-12-25T13:31:24.036Z,180
2022-12-25T13:35:03.048Z,160
2022-12-25T13:35:43.492Z,172
2022-12-25T13:36:24.073Z,192
2022-12-25T13:37:04.586Z,212
2022-12-25T13:37:45.137Z,236
2022-12-25T13:38:25.674Z,256
2022-12-25T13:39:06.092Z,264
2022-12-25T13:39:46.590Z,268
2022-12-25T13:40:27.159Z,268
2022-12-25T13:41:07.700Z,264
2022-12-25T13:47:55.375Z,240
2022-12-25T13:48:33.231Z,228
2022-12-25T13:49:13.696Z,224
2022-12-25T13:49:54.244Z,224
2022-12-25T13:50:34.832Z,220
2022-12-25T13:51:15.344Z,220
2022-12-25T13:51:57.473Z,220
2022-12-25T13:52:37.902Z,212
2022-12-25T13:59:23.496Z,100
2022-12-25T14:00:03.470Z,88
2022-12-25T14:00:44.108Z,80
2022-12-25T14:01:24.533Z,80
2022-12-25T14:02:05.218Z,72
2022-12-25T14:02:45.551Z,68
2022-12-25T14:03:26.013Z,60
2022-12-25T14:04:06.491Z,56
2022-12-25T14:04:46.982Z,56
2022-12-25T14:05:27.490Z,56
2022-12-25T14:06:08.074Z,56
2022-12-25T14:12:19.039Z,64
2022-12-25T14:12:53.648Z,64
2022-12-25T14:13:34.140Z,64
2022-12-25T14:14:14.614Z,64
2022-12-25T14:14:55.103Z,72
2022-12-25T14:15:35.582Z,76
2022-12-25T14:16:16.093Z,76
2022-12-25T14:17:37.069Z,76
2022-12-25T14:18:17.644Z,76
2022-12-25T14:25:43.123Z,76
2022-12-25T14:26:24.500Z,80
2022-12-25T14:27:04.133Z,84
2022-12-25T14:27:44.633Z,88
2022-12-25T14:28:25.117Z,92
2022-12-25T14:29:05.628Z,96
2022-12-25T14:29:46.131Z,100
2022-12-25T14:30:26.711Z,100
2022-12-25T14:31:07.217Z,100
2022-12-25T14:31:47.658Z,108
2022-12-25T14:38:32.783Z,96
2022-12-25T14:39:13.332Z,96
2022-12-25T14:39:54.515Z,92
2022-12-25T14:40:34.497Z,80
2022-12-25T14:41:15.174Z,68
2022-12-25T14:41:55.637Z,56
2022-12-25T14:42:36.155Z,52
2022-12-25T14:43:16.659Z,48
2022-12-25T14:43:57.164Z,48
2022-12-25T14:44:37.656Z,44
2022-12-25T14:51:22.730Z,44
2022-12-25T14:52:03.271Z,44
2022-12-25T14:52:43.819Z,44
2022-12-25T14:53:24.275Z,40
2022-12-25T14:54:04.700Z,40
2022-12-25T14:54:45.190Z,32
2022-12-25T14:55:25.690Z,28
2022-12-25T14:56:06.332Z,32
2022-12-25T14:56:46.865Z,28
2022-12-25T14:57:27.377Z,28
2022-12-25T14:58:07.919Z,28
2022-12-25T15:02:53.175Z,36
2022-12-25T15:06:07.060Z,36
2022-12-25T15:06:48.422Z,32
2022-12-25T15:07:29.619Z,32
2022-12-25T15:08:11.679Z,32
2022-12-25T15:08:52.131Z,32
2022-12-25T15:09:32.659Z,36
2022-12-25T15:10:57.257Z,36
2022-12-25T15:11:00.150Z,36
2022-12-25T15:17:39.792Z,20
2022-12-25T15:18:20.504Z,20
2022-12-25T15:19:00.916Z,20
2022-12-25T15:19:41.410Z,16
2022-12-25T15:20:21.911Z,20
2022-12-25T15:21:02.836Z,16
2022-12-25T15:21:44.116Z,16
2022-12-25T15:27:09.932Z,8
2022-12-25T15:27:50.435Z,8
2022-12-25T15:28:30.979Z,8
2022-12-25T15:29:11.513Z,8
2022-12-25T15:30:32.522Z,8
2022-12-25T15:31:13.090Z,8
2022-12-25T15:31:53.579Z,4
2022-12-25T15:32:34.060Z,4
2022-12-25T15:33:14.656Z,4
2022-12-25T15:39:59.931Z,4
2022-12-25T15:40:40.433Z,4
2022-12-25T15:41:20.941Z,4
2022-12-25T15:42:01.482Z,0
2022-12-25T15:42:41.968Z,0
2022-12-25T15:43:40.229Z,0
2022-12-25T15:44:03.045Z,0
2022-12-25T15:44:43.567Z,0
2022-12-25T15:45:24.081Z,4
2022-12-25T15:46:04.627Z,4
2022-12-25T15:50:49.544Z,0
2022-12-25T15:51:30.025Z,0
2022-12-25T15:52:11.453Z,0
2022-12-25T15:52:51.947Z,0
2022-12-25T15:54:13.080Z,0
2022-12-25T15:54:53.624Z,0
2022-12-25T15:55:34.153Z,0
2022-12-25T16:01:39.860Z,0
2022-12-25T16:02:20.595Z,0
2022-12-25T16:03:00.991Z,0
2022-12-25T16:03:41.192Z,0
2022-12-25T16:04:21.695Z,0
2022-12-25T16:05:06.985Z,0
2022-12-25T16:05:42.789Z,0
2022-12-25T16:06:23.345Z,0
2022-12-25T16:07:03.889Z,0
2022-12-25T16:07:44.346Z,0
2022-12-25T16:08:24.876Z,0
2022-12-25T16:13:09.665Z,0
2022-12-25T16:13:50.209Z,0
2022-12-25T16:14:30.752Z,0
2022-12-25T16:15:53.221Z,0
2022-12-25T16:16:33.783Z,0
2022-12-25T16:17:14.239Z,0
2022-12-25T16:23:20.704Z,0
2022-12-25T16:24:01.172Z,0
2022-12-25T16:24:43.693Z,0
2022-12-25T16:25:29.224Z,0
2022-12-25T16:29:29.863Z,0
2022-12-25T16:30:10.323Z,0
2022-12-25T16:30:50.902Z,0
2022-12-25T16:31:31.352Z,0
2022-12-25T16:32:11.853Z,0
2022-12-25T16:32:52.398Z,0
2022-12-25T16:33:32.894Z,0
2022-12-25T16:39:40.891Z,0
2022-12-25T16:42:56.081Z,0
2022-12-25T16:43:37.049Z,0
2022-12-25T16:44:17.495Z,0
2022-12-25T16:44:58.009Z,0
2022-12-25T16:45:38.587Z,0
2022-12-25T16:46:19.241Z,0
2022-12-25T16:47:00.024Z,0
2022-12-25T16:47:40.493Z,0
2022-12-25T16:55:27.907Z,0
2022-12-25T16:56:03.516Z,0
2022-12-25T16:56:45.513Z,0
2022-12-25T16:57:25.984Z,0
2022-12-25T16:58:06.567Z,0
2022-12-25T16:58:47.155Z,0
2022-12-25T17:05:32.708Z,0
2022-12-25T17:06:13.325Z,0
2022-12-25T17:06:54.012Z,0
2022-12-25T17:07:34.626Z,0
2022-12-25T17:08:15.151Z,0
2022-12-25T17:08:55.650Z,0
2022-12-25T17:09:40.469Z,0
2022-12-25T17:10:16.911Z,0
2022-12-25T17:10:57.423Z,0
2022-12-25T17:16:22.509Z,0
2022-12-25T17:17:02.826Z,0
2022-12-25T17:17:43.320Z,0
2022-12-25T17:18:23.834Z,0
2022-12-25T17:19:05.233Z,0
2022-12-25T17:19:45.071Z,0
2022-12-25T17:20:25.667Z,0
2022-12-25T17:21:06.263Z,0
2022-12-25T17:21:46.836Z,0
2022-12-25T17:22:27.364Z,0
2022-12-25T17:27:14.600Z,0
2022-12-25T17:27:55.444Z,0
2022-12-25T17:28:36.045Z,0
2022-12-25T17:29:21.552Z,0
2022-12-25T17:29:59.204Z,0
2022-12-25T17:32:42.771Z,0
2022-12-25T17:33:23.787Z,0
2022-12-25T17:34:04.537Z,0
2022-12-25T17:34:47.271Z,0
2022-12-25T17:40:12.738Z,0
2022-12-25T17:40:53.307Z,0
2022-12-25T17:41:34.321Z,0
2022-12-25T17:42:15.095Z,0
2022-12-25T17:42:55.723Z,0
2022-12-25T17:43:36.256Z,0
2022-12-25T17:44:16.743Z,0
2022-12-25T17:46:31.070Z,0
2022-12-25T17:47:11.168Z,0
2022-12-25T17:47:51.636Z,0
2022-12-25T17:48:32.159Z,0
2022-12-25T17:49:12.759Z,0
2022-12-25T17:49:53.221Z,0
2022-12-25T17:50:39.283Z,0
2022-12-25T17:51:14.390Z,0
2022-12-25T17:51:54.942Z,0
2022-12-25T17:52:35.352Z,0
2022-12-25T18:34:20.527Z,0
2022-12-25T18:35:00.790Z,0
2022-12-25T18:35:41.314Z,0
2022-12-25T18:36:22.688Z,0
2022-12-25T18:37:03.808Z,0
2022-12-25T18:37:44.761Z,0
2022-12-25T18:41:10.267Z,0
2022-12-25T18:41:51.281Z,0
2022-12-25T18:42:32.084Z,0
2022-12-25T18:43:12.734Z,0
2022-12-25T18:43:55.756Z,0
2022-12-25T18:44:34.290Z,0
2022-12-25T18:45:14.769Z,0
2022-12-25T18:48:02.177Z,0
2022-12-25T18:48:43.120Z,0
2022-12-25T18:49:23.954Z,0
2022-12-25T18:50:04.947Z,0
2022-12-25T18:54:25.779Z,0
2022-12-25T18:55:06.175Z,0
2022-12-25T18:55:46.692Z,0
2022-12-25T18:56:27.221Z,0
2022-12-25T18:57:08.526Z,0
2022-12-25T18:57:48.991Z,0
2022-12-25T18:58:29.567Z,0
2022-12-25T18:59:10.010Z,0
2022-12-25T19:03:15.083Z,0
2022-12-25T19:04:01.997Z,0
2022-12-25T19:04:36.957Z,0
2022-12-25T19:05:17.337Z,0
2022-12-25T19:05:57.840Z,0
2022-12-25T19:06:38.427Z,0
2022-12-25T19:07:18.941Z,0
2022-12-25T19:07:59.453Z,0
2022-12-25T19:08:39.985Z,0
2022-12-25T19:14:47.835Z,0
2022-12-25T19:15:25.472Z,0
2022-12-25T19:16:06.071Z,0
2022-12-25T19:16:46.549Z,0
2022-12-25T19:17:31.704Z,0
2022-12-25T19:18:07.597Z,0
2022-12-25T19:18:48.155Z,0
2022-12-25T19:19:28.737Z,0
2022-12-25T19:20:09.327Z,0
2022-12-25T19:20:49.846Z,0
2022-12-25T19:25:35.186Z,0
2022-12-25T19:26:15.748Z,0
2022-12-25T19:26:56.314Z,0
2022-12-25T19:27:37.374Z,0
2022-12-25T19:28:17.931Z,0
2022-12-25T19:28:58.444Z,0
2022-12-25T19:29:39.020Z,0
2022-12-25T19:37:05.183Z,0
2022-12-25T19:37:45.692Z,0
2022-12-25T19:38:26.165Z,0
2022-12-25T19:39:06.752Z,0
2022-12-25T19:39:47.263Z,0
2022-12-25T19:40:27.798Z,0
2022-12-25T19:41:08.306Z,0
2022-12-25T19:41:49.183Z,0
2022-12-25T19:42:29.734Z,0
2022-12-25T19:47:55.385Z,0
2022-12-25T19:48:35.905Z,0
2022-12-25T19:49:16.405Z,0
2022-12-25T19:50:00.915Z,0
2022-12-25T19:50:37.415Z,0
2022-12-25T19:51:17.936Z,0
2022-12-25T19:51:58.456Z,0
2022-12-25T19:52:38.912Z,0
2022-12-25T19:53:19.476Z,0
2022-12-25T19:53:59.968Z,0
2022-12-25T19:59:24.859Z,0
2022-12-25T20:02:38.988Z,0
2022-12-25T20:03:20.007Z,0
2022-12-25T20:04:01.125Z,0
2022-12-25T20:04:42.143Z,0
2022-12-25T20:05:23.179Z,0
2022-12-25T20:08:49.238Z,0
2022-12-25T20:09:30.204Z,0
2022-12-25T20:10:11.286Z,0
2022-12-25T20:10:52.192Z,0
2022-12-25T20:11:33.194Z,0
2022-12-25T20:15:39.240Z,0
2022-12-25T20:16:20.315Z,0
2022-12-25T20:17:01.298Z,0
2022-12-25T20:17:42.341Z,0
2022-12-25T20:18:23.338Z,0
2022-12-25T20:21:49.051Z,0
2022-12-25T20:22:30.042Z,0
2022-12-25T20:23:11.066Z,0
2022-12-25T20:23:52.217Z,0
2022-12-25T20:24:33.169Z,0
2022-12-25T20:27:58.639Z,0
2022-12-25T20:28:39.647Z,0
2022-12-25T20:29:20.653Z,0
2022-12-25T20:30:01.649Z,0
2022-12-25T20:30:42.705Z,0
2022-12-25T20:31:23.732Z,0
2022-12-25T20:34:48.997Z,0
2022-12-25T20:35:30.006Z,0
2022-12-25T20:36:10.951Z,0
2022-12-25T20:36:51.999Z,0
2022-12-25T20:37:32.871Z,0
2022-12-25T20:38:13.918Z,0
2022-12-25T20:41:39.222Z,0
2022-12-25T20:42:20.447Z,0
2022-12-25T20:43:01.530Z,0
2022-12-25T20:43:45.407Z,0
2022-12-25T20:44:23.513Z,0
2022-12-25T20:47:48.859Z,0
2022-12-25T20:48:29.970Z,0
2022-12-25T20:49:10.989Z,0
2022-12-25T20:49:52.015Z,0
2022-12-25T20:50:33.078Z,0
2022-12-25T20:51:14.120Z,0